Time;durP1;ratioP1;P1;durP2;ratioP2;P2;SDS_P1;SDS_P2;PMS_P1;PMS_P2;Temp;Humidity;BMP_temperature;BMP_pressure;BME280_temperature;BME280_humidity;BME280_pressure;Samples;Min_cycle;Max_cycle;Signal;HPM_P1;HPM_P2
2022/05/29 19:02:30;;;;;;;16.20;7.82;;;16.60;99.90;;;;;;6228592;22;20076;-90
2022/05/29 19:04:57;;;;;;;15.77;7.70;;;16.50;99.90;;;;;;6226829;23;20104;-88
2022/05/29 19:07:45;;;;;;;14.88;8.05;;;16.40;99.90;;;;;;6230970;23;20013;-90
2022/05/29 19:10:23;;;;;;;16.80;7.68;;;16.20;99.90;;;;;;6200554;22;19997;-90
2022/05/29 19:12:55;;;;;;;13.77;6.78;;;16.30;99.90;;;;;;6204545;23;20043;-94
2022/05/29 19:15:28;;;;;;;16.15;7.03;;;16.20;99.90;;;;;;6220780;23;20000;-93
2022/05/29 19:20:42;;;;;;;16.48;7.15;;;16.20;99.90;;;;;;6231662;23;20112;-92
2022/05/29 19:23:14;;;;;;;13.93;7.70;;;16.10;99.90;;;;;;6223190;23;20000;-92
2022/05/29 19:25:46;;;;;;;16.35;7.10;;;16.50;99.90;;;;;;6230953;23;20056;-83
2022/05/29 19:28:15;;;;;;;15.07;7.18;;;14.10;99.90;;;;;;6176703;23;20079;-86
2022/05/29 19:31:02;;;;;;;16.52;8.82;;;16.00;99.90;;;;;;6186768;23;20028;-89
2022/05/29 19:33:29;;;;;;;17.35;7.75;;;16.00;99.90;;;;;;6189834;23;20190;-91
2022/05/29 19:36:12;;;;;;;16.90;7.70;;;16.10;99.90;;;;;;6182113;23;20001;-93
2022/05/29 19:38:47;;;;;;;15.90;8.55;;;16.10;99.90;;;;;;6156770;23;20008;-93
2022/05/29 19:41:29;;;;;;;16.27;7.82;;;16.20;99.90;;;;;;6178843;23;20001;-93
2022/05/29 19:43:56;;;;;;;19.20;8.10;;;16.10;99.90;;;;;;6183490;23;20032;-87
2022/05/29 20:12:44;;;;;;;18.80;8.07;;;17.70;99.90;;;;;;6236205;23;20015;-88
2022/05/29 20:18:18;;;;;;;15.57;8.07;;;15.90;99.90;;;;;;6226234;22;20055;-86
2022/05/29 20:20:49;;;;;;;14.48;7.10;;;16.00;99.90;;;;;;6226699;23;20060;-86
2022/05/29 20:40:26;;;;;;;12.23;6.55;;;15.90;99.90;;;;;;6215812;22;20036;-88
2022/05/29 21:14:15;;;;;;;15.45;8.00;;;15.20;99.90;;;;;;6227823;22;20394;-84
2022/05/29 21:38:38;;;;;;;18.45;10.70;;;16.00;99.90;;;;;;6214028;22;20024;-91
2022/05/29 21:43:48;;;;;;;18.50;8.88;;;;;;;;;;6222829;22;20178;-92
2022/05/29 21:49:32;;;;;;;21.85;10.88;;;15.90;99.90;;;;;;6218111;22;21428;-87
2022/05/29 22:00:35;;;;;;;10.85;5.00;;;15.60;99.90;;;;;;6223320;22;20028;-88
2022/05/29 22:05:26;;;;;;;13.20;6.05;;;15.50;99.90;;;;;;6215218;22;20078;-90
2022/05/29 22:16:26;;;;;;;13.02;6.60;;;15.30;99.90;;;;;;6225185;22;20252;-89
2022/05/29 22:18:59;;;;;;;12.30;5.38;;;16.00;99.90;;;;;;6108321;23;20014;-91
2022/05/29 22:21:56;;;;;;;11.63;5.97;;;15.90;99.90;;;;;;6084135;23;20002;-88
2022/05/29 22:24:35;;;;;;;12.80;7.10;;;15.10;99.90;;;;;;6110332;23;19999;-90
2022/05/29 22:27:16;;;;;;;11.18;5.80;;;14.90;99.90;;;;;;6110139;23;20173;-92
2022/05/29 22:30:01;;;;;;;14.18;6.22;;;15.10;99.90;;;;;;6084749;23;20049;-93
2022/05/29 22:33:02;;;;;;;11.30;5.28;;;14.90;99.90;;;;;;6084831;23;20041;-91
2022/05/29 22:35:48;;;;;;;10.90;5.03;;;14.90;99.90;;;;;;6184737;23;20028;-92
2022/05/29 22:38:17;;;;;;;10.48;5.32;;;11.80;99.90;;;;;;6204636;23;20005;-94
2022/05/29 22:40:43;;;;;;;10.90;5.38;;;;;;;;;;6205173;22;20024;-93
2022/05/29 22:43:24;;;;;;;14.82;5.78;;;14.70;99.90;;;;;;6207909;22;20055;-92
2022/05/29 22:46:17;;;;;;;11.32;5.97;;;15.80;99.90;;;;;;6205491;23;20013;-89
2022/05/29 22:49:40;;;;;;;12.83;7.17;;;16.30;99.90;;;;;;6203095;23;20071;-95
2022/05/29 22:52:38;;;;;;;15.00;8.05;;;13.40;99.90;;;;;;6202632;23;20445;-91
2022/05/29 22:58:02;;;;;;;13.82;6.70;;;15.00;99.90;;;;;;6202774;23;20059;-91
2022/05/29 23:00:48;;;;;;;11.15;5.80;;;17.30;99.90;;;;;;6200381;23;20171;-91
2022/05/29 23:04:03;;;;;;;14.60;5.78;;;14.50;99.90;;;;;;6174761;23;20004;-92
2022/05/29 23:06:38;;;;;;;9.40;5.03;;;14.50;99.90;;;;;;6174781;23;20545;-91
2022/05/29 23:09:19;;;;;;;10.73;4.88;;;14.70;99.90;;;;;;6174210;23;20088;-93
2022/05/29 23:11:48;;;;;;;10.45;5.18;;;15.10;99.90;;;;;;6175240;23;20001;-93
2022/05/29 23:14:35;;;;;;;11.07;6.00;;;14.30;99.90;;;;;;6176788;23;20008;-89
2022/05/29 23:17:01;;;;;;;11.57;6.03;;;14.30;99.90;;;;;;6179938;23;20325;-90
2022/05/29 23:19:46;;;;;;;10.13;5.18;;;14.30;99.90;;;;;;6180117;23;20152;-92
2022/05/29 23:22:35;;;;;;;11.27;6.28;;;14.30;99.90;;;;;;6207962;23;20428;-90
2022/05/29 23:25:10;;;;;;;12.25;4.95;;;14.30;99.90;;;;;;6177159;23;20005;-93
2022/05/29 23:28:07;;;;;;;13.10;6.15;;;13.40;99.90;;;;;;6203608;23;20008;-92
2022/05/29 23:31:07;;;;;;;10.27;5.68;;;14.30;99.90;;;;;;6177286;23;20470;-90
2022/05/29 23:33:44;;;;;;;10.70;5.35;;;14.20;99.90;;;;;;6178458;23;20170;-91
2022/05/29 23:36:29;;;;;;;12.13;5.95;;;14.20;99.90;;;;;;6204750;23;20487;-93
2022/05/29 23:39:01;;;;;;;12.40;6.07;;;14.20;99.90;;;;;;6179132;23;20420;-93
2022/05/29 23:44:48;;;;;;;12.18;5.75;;;13.70;99.90;;;;;;6204062;23;20159;-89
2022/05/29 23:47:26;;;;;;;14.98;6.57;;;14.00;99.90;;;;;;6179838;23;20020;-93
2022/05/29 23:49:54;;;;;;;13.00;5.97;;;14.00;99.90;;;;;;6178128;23;20004;-92
2022/05/29 23:52:29;;;;;;;14.07;7.20;;;14.00;99.90;;;;;;6193885;23;20005;-94
2022/05/29 23:54:55;;;;;;;11.68;5.20;;;13.90;99.90;;;;;;6131367;23;20012;-91
2022/05/29 23:57:58;;;;;;;12.48;5.75;;;13.80;99.90;;;;;;6213593;23;20050;-92
